sensor_id;sensor_type;location;lat;lon;timestamp;pressure;altitude;pressure_sealevel;temperature;humidity
42247;BME280;27913;42.722;23.268;2022-09-09T00:07:48;95231.31;;;19.87;67.78
42247;BME280;27913;42.722;23.268;2022-09-09T00:21:37;95125.09;;;19.08;68.45
42247;BME280;27913;42.722;23.268;2022-09-09T00:25:22;95077.88;;;18.75;68.54
42247;BME280;27913;42.722;23.268;2022-09-09T00:30:22;95193.34;;;19.51;68.81
42247;BME280;27913;42.722;23.268;2022-09-09T00:32:49;95070.25;;;18.66;69.01
42247;BME280;27913;42.722;23.268;2022-09-09T00:35:31;95106.03;;;19.00;69.07
42247;BME280;27913;42.722;23.268;2022-09-09T00:38:28;95060.88;;;18.64;69.52
42247;BME280;27913;42.722;23.268;2022-09-09T00:41:07;94941.75;;;17.77;69.89
42247;BME280;27913;42.722;23.268;2022-09-09T00:43:37;95207.22;;;19.36;70.09
42247;BME280;27913;42.722;23.268;2022-09-09T00:46:22;95169.28;;;19.04;70.20
42247;BME280;27913;42.722;23.268;2022-09-09T00:51:51;95219.63;;;19.30;69.84
42247;BME280;27913;42.722;23.268;2022-09-09T00:57:29;95208.16;;;19.29;69.84
42247;BME280;27913;42.722;23.268;2022-09-09T01:02:54;95171.03;;;18.99;69.99
42247;BME280;27913;42.722;23.268;2022-09-09T01:08:01;95122.00;;;18.70;70.11
42247;BME280;27913;42.722;23.268;2022-09-09T01:10:37;95151.03;;;18.84;70.28
42247;BME280;27913;42.722;23.268;2022-09-09T01:13:13;95210.75;;;19.12;70.16
42247;BME280;27913;42.722;23.268;2022-09-09T01:15:41;95213.06;;;19.08;70.16
42247;BME280;27913;42.722;23.268;2022-09-09T01:18:12;95214.25;;;19.01;70.38
42247;BME280;27913;42.722;23.268;2022-09-09T01:20:48;95210.75;;;19.00;70.91
42247;BME280;27913;42.722;23.268;2022-09-09T01:28:31;95177.66;;;18.84;70.85
42247;BME280;27913;42.722;23.268;2022-09-09T01:30:58;95179.84;;;18.87;70.72
42247;BME280;27913;42.722;23.268;2022-09-09T01:33:24;95196.41;;;18.89;69.99
42247;BME280;27913;42.722;23.268;2022-09-09T01:35:57;95208.00;;;18.95;69.84
42247;BME280;27913;42.722;23.268;2022-09-09T01:38:26;95219.22;;;18.97;70.31
42247;BME280;27913;42.722;23.268;2022-09-09T01:40:53;95183.63;;;18.62;70.33
42247;BME280;27913;42.722;23.268;2022-09-09T01:43:22;95221.13;;;18.61;71.66
42247;BME280;27913;42.722;23.268;2022-09-09T01:45:51;95222.75;;;18.50;72.42
42247;BME280;27913;42.722;23.268;2022-09-09T01:48:18;95205.84;;;18.32;72.71
42247;BME280;27913;42.722;23.268;2022-09-09T01:50:44;95027.63;;;17.17;72.28
42247;BME280;27913;42.722;23.268;2022-09-09T01:53:11;95211.19;;;18.20;72.81
42247;BME280;27913;42.722;23.268;2022-09-09T01:55:39;95233.06;;;18.22;72.92
42247;BME280;27913;42.722;23.268;2022-09-09T02:01:08;95224.38;;;18.15;72.38
42247;BME280;27913;42.722;23.268;2022-09-09T02:03:38;95064.22;;;17.15;72.24
42247;BME280;27913;42.722;23.268;2022-09-09T02:08:47;95184.06;;;17.99;71.58
42247;BME280;27913;42.722;23.268;2022-09-09T02:11:18;95041.72;;;17.18;71.78
42247;BME280;27913;42.722;23.268;2022-09-09T02:13:46;95204.69;;;18.28;71.67
42247;BME280;27913;42.722;23.268;2022-09-09T02:16:21;95150.50;;;17.98;71.81
42247;BME280;27913;42.722;23.268;2022-09-09T02:18:57;95199.47;;;18.21;71.47
42247;BME280;27913;42.722;23.268;2022-09-09T02:21:29;95008.16;;;17.05;71.40
42247;BME280;27913;42.722;23.268;2022-09-09T02:23:58;95217.31;;;18.32;71.31
42247;BME280;27913;42.722;23.268;2022-09-09T02:26:25;94988.34;;;16.76;71.76
42247;BME280;27913;42.722;23.268;2022-09-09T02:28:53;95141.69;;;17.73;71.63
42247;BME280;27913;42.722;23.268;2022-09-09T02:31:21;94957.25;;;16.65;71.53
42247;BME280;27913;42.722;23.268;2022-09-09T02:33:56;95040.44;;;17.20;71.76
42247;BME280;27913;42.722;23.268;2022-09-09T02:36:27;95225.19;;;18.27;72.08
42247;BME280;27913;42.722;23.268;2022-09-09T02:38:55;95179.88;;;17.91;71.92
42247;BME280;27913;42.722;23.268;2022-09-09T02:41:26;95178.25;;;17.90;72.22
42247;BME280;27913;42.722;23.268;2022-09-09T02:43:52;95234.66;;;18.23;71.95
42247;BME280;27913;42.722;23.268;2022-09-09T02:54:17;95181.59;;;17.85;71.97
42247;BME280;27913;42.722;23.268;2022-09-09T02:56:51;95151.59;;;17.54;72.36
42247;BME280;27913;42.722;23.268;2022-09-09T02:59:19;95149.75;;;17.55;72.32
42247;BME280;27913;42.722;23.268;2022-09-09T03:01:44;95044.16;;;16.88;72.39
42247;BME280;27913;42.722;23.268;2022-09-09T03:04:10;95196.41;;;17.81;72.15
42247;BME280;27913;42.722;23.268;2022-09-09T03:06:35;95119.50;;;17.25;72.22
42247;BME280;27913;42.722;23.268;2022-09-09T03:09:01;95229.72;;;17.96;72.70
42247;BME280;27913;42.722;23.268;2022-09-09T03:11:28;95219.19;;;18.01;72.07
42247;BME280;27913;42.722;23.268;2022-09-09T03:13:54;95231.03;;;18.05;72.39
42247;BME280;27913;42.722;23.268;2022-09-09T03:16:24;95233.22;;;18.08;72.26
42247;BME280;27913;42.722;23.268;2022-09-09T03:18:49;95224.22;;;18.09;72.10
42247;BME280;27913;42.722;23.268;2022-09-09T03:21:15;95230.56;;;18.08;71.82
42247;BME280;27913;42.722;23.268;2022-09-09T03:23:41;95006.88;;;16.64;71.73
42247;BME280;27913;42.722;23.268;2022-09-09T03:26:07;95174.94;;;17.64;72.12
42247;BME280;27913;42.722;23.268;2022-09-09T03:28:33;95231.25;;;18.04;72.23
42247;BME280;27913;42.722;23.268;2022-09-09T03:31:03;95213.75;;;17.96;71.95
42247;BME280;27913;42.722;23.268;2022-09-09T03:33:29;95210.88;;;17.97;72.01
42247;BME280;27913;42.722;23.268;2022-09-09T03:35:55;95223.97;;;17.99;72.24
42247;BME280;27913;42.722;23.268;2022-09-09T03:38:24;95216.78;;;17.99;72.36
42247;BME280;27913;42.722;23.268;2022-09-09T03:40:51;95220.25;;;18.00;72.25
42247;BME280;27913;42.722;23.268;2022-09-09T03:43:24;95221.88;;;18.01;72.29
42247;BME280;27913;42.722;23.268;2022-09-09T03:45:50;95226.16;;;18.02;72.14
42247;BME280;27913;42.722;23.268;2022-09-09T03:48:17;95216.97;;;17.86;72.36
42247;BME280;27913;42.722;23.268;2022-09-09T03:50:51;95229.59;;;17.91;72.67
42247;BME280;27913;42.722;23.268;2022-09-09T03:53:19;95228.69;;;17.85;73.11
42247;BME280;27913;42.722;23.268;2022-09-09T03:55:45;95229.81;;;17.89;72.93
42247;BME280;27913;42.722;23.268;2022-09-09T03:58:15;95240.00;;;17.92;72.81
42247;BME280;27913;42.722;23.268;2022-09-09T04:00:52;95031.16;;;16.68;72.71
42247;BME280;27913;42.722;23.268;2022-09-09T04:03:18;95234.88;;;17.79;72.54
42247;BME280;27913;42.722;23.268;2022-09-09T04:05:43;95240.44;;;17.77;72.74
42247;BME280;27913;42.722;23.268;2022-09-09T04:08:09;95180.34;;;17.45;72.39
42247;BME280;27913;42.722;23.268;2022-09-09T04:10:34;95041.84;;;16.61;72.45
42247;BME280;27913;42.722;23.268;2022-09-09T04:13:04;95231.22;;;17.80;72.40
42247;BME280;27913;42.722;23.268;2022-09-09T04:15:30;95224.47;;;17.77;73.26
42247;BME280;27913;42.722;23.268;2022-09-09T04:17:56;95195.88;;;17.60;73.86
42247;BME280;27913;42.722;23.268;2022-09-09T04:20:21;95238.13;;;17.81;73.54
42247;BME280;27913;42.722;23.268;2022-09-09T04:22:47;95232.81;;;17.81;73.23
42247;BME280;27913;42.722;23.268;2022-09-09T04:25:13;95230.97;;;17.81;73.63
42247;BME280;27913;42.722;23.268;2022-09-09T04:27:39;95189.25;;;17.51;73.16
42247;BME280;27913;42.722;23.268;2022-09-09T04:30:05;95238.25;;;17.86;73.60
42247;BME280;27913;42.722;23.268;2022-09-09T04:32:34;95182.22;;;17.57;73.50
42247;BME280;27913;42.722;23.268;2022-09-09T04:35:02;95238.63;;;17.90;73.33
42247;BME280;27913;42.722;23.268;2022-09-09T04:37:27;95191.84;;;17.70;72.98
42247;BME280;27913;42.722;23.268;2022-09-09T04:39:53;95127.25;;;17.26;73.63
42247;BME280;27913;42.722;23.268;2022-09-09T04:42:19;95209.22;;;17.84;73.44
42247;BME280;27913;42.722;23.268;2022-09-09T04:44:44;95179.97;;;17.72;73.39
42247;BME280;27913;42.722;23.268;2022-09-09T04:47:10;95155.06;;;17.55;73.49
42247;BME280;27913;42.722;23.268;2022-09-09T04:49:36;95210.75;;;17.92;73.09
42247;BME280;27913;42.722;23.268;2022-09-09T04:52:02;95196.19;;;17.95;72.67
42247;BME280;27913;42.722;23.268;2022-09-09T04:54:29;95209.72;;;18.05;72.92
42247;BME280;27913;42.722;23.268;2022-09-09T04:56:54;95227.16;;;18.20;72.18
42247;BME280;27913;42.722;23.268;2022-09-09T04:59:20;95113.78;;;17.52;72.16
42247;BME280;27913;42.722;23.268;2022-09-09T05:01:47;95232.13;;;18.16;72.15
42247;BME280;27913;42.722;23.268;2022-09-09T05:04:12;95119.78;;;17.47;72.00
42247;BME280;27913;42.722;23.268;2022-09-09T05:06:40;95217.16;;;18.15;72.08
42247;BME280;27913;42.722;23.268;2022-09-09T05:09:06;95056.50;;;17.25;72.43
42247;BME280;27913;42.722;23.268;2022-09-09T05:11:33;95214.06;;;18.18;72.23
42247;BME280;27913;42.722;23.268;2022-09-09T05:14:01;95221.91;;;18.13;73.00
42247;BME280;27913;42.722;23.268;2022-09-09T05:16:26;95224.88;;;18.05;72.61
42247;BME280;27913;42.722;23.268;2022-09-09T05:18:52;95219.06;;;17.96;73.18
42247;BME280;27913;42.722;23.268;2022-09-09T05:21:19;94978.63;;;16.39;74.08
42247;BME280;27913;42.722;23.268;2022-09-09T05:23:45;95121.88;;;17.14;75.36
42247;BME280;27913;42.722;23.268;2022-09-09T05:26:16;95214.38;;;17.55;77.61
42247;BME280;27913;42.722;23.268;2022-09-09T05:28:42;95209.66;;;17.69;76.67
42247;BME280;27913;42.722;23.268;2022-09-09T05:31:09;95215.41;;;17.66;76.07
42247;BME280;27913;42.722;23.268;2022-09-09T05:33:36;95212.97;;;17.53;75.95
42247;BME280;27913;42.722;23.268;2022-09-09T05:36:06;95207.50;;;17.47;76.75
42247;BME280;27913;42.722;23.268;2022-09-09T05:38:33;95225.16;;;17.42;75.85
42247;BME280;27913;42.722;23.268;2022-09-09T05:41:00;95038.94;;;16.32;76.09
42247;BME280;27913;42.722;23.268;2022-09-09T05:43:27;95223.63;;;17.65;75.77
42247;BME280;27913;42.722;23.268;2022-09-09T05:46:10;95225.47;;;17.64;76.57
42247;BME280;27913;42.722;23.268;2022-09-09T05:48:38;95222.91;;;17.57;76.40
42247;BME280;27913;42.722;23.268;2022-09-09T05:51:06;95224.63;;;17.52;75.55
42247;BME280;27913;42.722;23.268;2022-09-09T05:53:35;95219.38;;;17.45;75.33
42247;BME280;27913;42.722;23.268;2022-09-09T05:56:02;95168.66;;;17.16;75.57
42247;BME280;27913;42.722;23.268;2022-09-09T05:58:34;95225.13;;;17.60;75.29
42247;BME280;27913;42.722;23.268;2022-09-09T06:01:03;95205.47;;;17.61;75.30
42247;BME280;27913;42.722;23.268;2022-09-09T06:03:29;95241.75;;;17.98;74.27
42247;BME280;27913;42.722;23.268;2022-09-09T06:06:02;95065.53;;;16.94;73.04
42247;BME280;27913;42.722;23.268;2022-09-09T06:08:30;95235.75;;;18.03;73.10
42247;BME280;27913;42.722;23.268;2022-09-09T06:11:01;95230.19;;;18.05;73.53
42247;BME280;27913;42.722;23.268;2022-09-09T06:13:28;95188.31;;;17.88;73.36
42247;BME280;27913;42.722;23.268;2022-09-09T06:15:53;95232.81;;;18.23;73.06
42247;BME280;27913;42.722;23.268;2022-09-09T06:18:19;95050.72;;;17.17;72.46
42247;BME280;27913;42.722;23.268;2022-09-09T06:21:01;95236.88;;;18.38;71.98
42247;BME280;27913;42.722;23.268;2022-09-09T06:23:27;95238.63;;;18.44;72.16
42247;BME280;27913;42.722;23.268;2022-09-09T06:26:12;95130.13;;;17.80;72.07
42247;BME280;27913;42.722;23.268;2022-09-09T06:28:38;95200.88;;;18.35;72.16
42247;BME280;27913;42.722;23.268;2022-09-09T06:31:07;95244.28;;;18.72;71.25
42247;BME280;27913;42.722;23.268;2022-09-09T06:33:35;95234.31;;;18.79;70.00
42247;BME280;27913;42.722;23.268;2022-09-09T06:36:02;95229.56;;;18.81;70.10
42247;BME280;27913;42.722;23.268;2022-09-09T06:38:28;95154.00;;;18.46;69.31
42247;BME280;27913;42.722;23.268;2022-09-09T06:40:55;95231.25;;;19.00;69.19
42247;BME280;27913;42.722;23.268;2022-09-09T06:43:22;95112.19;;;18.47;68.56
42247;BME280;27913;42.722;23.268;2022-09-09T06:48:19;95177.19;;;18.87;68.49
42247;BME280;27913;42.722;23.268;2022-09-09T06:50:45;95222.88;;;19.32;67.67
42247;BME280;27913;42.722;23.268;2022-09-09T06:53:11;95076.44;;;18.43;66.88
42247;BME280;27913;42.722;23.268;2022-09-09T06:55:37;95218.56;;;19.43;65.86
42247;BME280;27913;42.722;23.268;2022-09-09T06:58:08;95241.00;;;19.47;65.67
42247;BME280;27913;42.722;23.268;2022-09-09T07:00:33;95243.69;;;19.47;65.75
42247;BME280;27913;42.722;23.268;2022-09-09T07:02:59;95234.16;;;19.51;65.53
42247;BME280;27913;42.722;23.268;2022-09-09T07:05:24;95235.63;;;19.59;65.16
42247;BME280;27913;42.722;23.268;2022-09-09T07:07:51;95232.69;;;19.73;65.12
42247;BME280;27913;42.722;23.268;2022-09-09T07:10:17;95224.38;;;19.86;65.09
42247;BME280;27913;42.722;23.268;2022-09-09T07:12:42;95072.53;;;19.04;64.80
42247;BME280;27913;42.722;23.268;2022-09-09T07:15:08;95045.56;;;19.00;64.29
42247;BME280;27913;42.722;23.268;2022-09-09T07:17:34;95174.25;;;19.88;63.09
42247;BME280;27913;42.722;23.268;2022-09-09T07:20:01;95179.50;;;20.00;62.89
42247;BME280;27913;42.722;23.268;2022-09-09T07:22:27;95223.13;;;20.40;62.54
42247;BME280;27913;42.722;23.268;2022-09-09T07:24:53;95180.41;;;20.23;62.29
42247;BME280;27913;42.722;23.268;2022-09-09T07:27:20;95221.56;;;20.62;62.18
42247;BME280;27913;42.722;23.268;2022-09-09T07:29:46;95092.25;;;19.84;61.14
42247;BME280;27913;42.722;23.268;2022-09-09T07:32:11;95213.44;;;20.74;61.28
42247;BME280;27913;42.722;23.268;2022-09-09T07:34:37;95107.28;;;20.24;61.94
42247;BME280;27913;42.722;23.268;2022-09-09T07:37:02;95212.13;;;20.94;60.88
42247;BME280;27913;42.722;23.268;2022-09-09T07:39:28;95144.53;;;20.54;60.13
42247;BME280;27913;42.722;23.268;2022-09-09T07:41:53;95211.94;;;21.00;60.03
42247;BME280;27913;42.722;23.268;2022-09-09T07:44:24;95170.63;;;20.69;59.45
42247;BME280;27913;42.722;23.268;2022-09-09T07:46:52;95225.94;;;21.08;59.64
42247;BME280;27913;42.722;23.268;2022-09-09T07:49:18;95219.88;;;21.18;59.11
42247;BME280;27913;42.722;23.268;2022-09-09T07:51:45;95036.56;;;20.05;58.70
42247;BME280;27913;42.722;23.268;2022-09-09T07:54:13;95096.19;;;20.55;58.55
42247;BME280;27913;42.722;23.268;2022-09-09T07:56:41;95153.13;;;21.00;58.13
42247;BME280;27913;42.722;23.268;2022-09-09T07:59:08;95015.41;;;20.20;57.31
42247;BME280;27913;42.722;23.268;2022-09-09T08:01:37;95225.31;;;21.51;57.15
42247;BME280;27913;42.722;23.268;2022-09-09T08:04:07;95194.00;;;21.46;56.93
42247;BME280;27913;42.722;23.268;2022-09-09T08:06:39;95102.22;;;20.90;56.06
42247;BME280;27913;42.722;23.268;2022-09-09T08:09:05;95099.03;;;20.93;56.19
42247;BME280;27913;42.722;23.268;2022-09-09T08:11:31;95214.00;;;21.66;56.24
42247;BME280;27913;42.722;23.268;2022-09-09T08:13:58;95213.53;;;21.74;56.10
42247;BME280;27913;42.722;23.268;2022-09-09T08:16:30;95135.34;;;21.39;56.22
42247;BME280;27913;42.722;23.268;2022-09-09T08:18:56;95186.69;;;21.91;56.03
42247;BME280;27913;42.722;23.268;2022-09-09T08:21:27;95021.03;;;20.96;55.33
42247;BME280;27913;42.722;23.268;2022-09-09T08:23:54;95199.59;;;22.32;54.87
42247;BME280;27913;42.722;23.268;2022-09-09T08:26:25;95215.72;;;22.43;54.18
42247;BME280;27913;42.722;23.268;2022-09-09T08:28:53;95170.72;;;22.40;54.04
42247;BME280;27913;42.722;23.268;2022-09-09T08:31:33;95101.41;;;22.11;54.00
42247;BME280;27913;42.722;23.268;2022-09-09T08:33:59;95081.78;;;21.94;53.40
42247;BME280;27913;42.722;23.268;2022-09-09T08:36:27;95204.72;;;22.83;53.16
42247;BME280;27913;42.722;23.268;2022-09-09T08:38:55;95177.59;;;22.68;53.05
42247;BME280;27913;42.722;23.268;2022-09-09T08:44:46;95147.81;;;22.65;53.64
42247;BME280;27913;42.722;23.268;2022-09-09T08:47:23;95186.34;;;23.07;52.94
42247;BME280;27913;42.722;23.268;2022-09-09T08:52:28;95198.16;;;23.11;52.08
42247;BME280;27913;42.722;23.268;2022-09-09T08:57:49;95196.31;;;23.22;51.59
42247;BME280;27913;42.722;23.268;2022-09-09T09:00:17;95023.03;;;22.20;51.32
42247;BME280;27913;42.722;23.268;2022-09-09T09:03:06;95192.13;;;23.42;51.76
42247;BME280;27913;42.722;23.268;2022-09-09T09:05:46;95201.78;;;23.48;50.89
42247;BME280;27913;42.722;23.268;2022-09-09T09:08:29;95197.50;;;23.47;50.74
42247;BME280;27913;42.722;23.268;2022-09-09T09:10:58;95188.63;;;23.47;50.98
42247;BME280;27913;42.722;23.268;2022-09-09T09:13:45;95185.16;;;23.62;51.21
42247;BME280;27913;42.722;23.268;2022-09-09T09:16:27;95069.94;;;22.92;51.13
42247;BME280;27913;42.722;23.268;2022-09-09T09:18:58;95110.50;;;23.22;50.66
42247;BME280;27913;42.722;23.268;2022-09-09T09:21:36;95186.53;;;23.75;50.74
42247;BME280;27913;42.722;23.268;2022-09-09T09:24:07;95130.16;;;23.54;50.42
42247;BME280;27913;42.722;23.268;2022-09-09T09:26:42;95173.94;;;23.96;49.89
42247;BME280;27913;42.722;23.268;2022-09-09T09:29:14;95187.91;;;24.04;49.93
42247;BME280;27913;42.722;23.268;2022-09-09T09:31:48;95178.75;;;24.05;49.58
42247;BME280;27913;42.722;23.268;2022-09-09T09:34:16;95184.69;;;24.01;49.64
42247;BME280;27913;42.722;23.268;2022-09-09T09:37:16;95145.47;;;23.74;49.78
42247;BME280;27913;42.722;23.268;2022-09-09T09:39:34;95170.97;;;23.82;49.86
42247;BME280;27913;42.722;23.268;2022-09-09T09:42:09;95075.38;;;23.29;50.00
42247;BME280;27913;42.722;23.268;2022-09-09T09:44:37;95177.41;;;23.86;50.28
42247;BME280;27913;42.722;23.268;2022-09-09T09:47:15;95110.56;;;23.59;50.21
42247;BME280;27913;42.722;23.268;2022-09-09T09:49:54;95039.13;;;23.16;50.35
42247;BME280;27913;42.722;23.268;2022-09-09T09:52:25;95152.19;;;23.87;50.42
42247;BME280;27913;42.722;23.268;2022-09-09T09:54:52;95084.00;;;23.52;50.31
42247;BME280;27913;42.722;23.268;2022-09-09T09:57:26;95149.78;;;23.96;50.97
42247;BME280;27913;42.722;23.268;2022-09-09T10:02:38;95029.75;;;23.19;50.92
42247;BME280;27913;42.722;23.268;2022-09-09T10:05:26;95056.63;;;23.45;50.53
42247;BME280;27913;42.722;23.268;2022-09-09T10:08:05;95100.09;;;23.78;50.38
42247;BME280;27913;42.722;23.268;2022-09-09T10:19:35;95174.44;;;23.77;51.13
42247;BME280;27913;42.722;23.268;2022-09-09T10:30:23;95179.81;;;23.77;51.31
42247;BME280;27913;42.722;23.268;2022-09-09T10:36:21;95144.91;;;23.57;50.93
42247;BME280;27913;42.722;23.268;2022-09-09T10:38:57;95186.28;;;23.82;51.73
42247;BME280;27913;42.722;23.268;2022-09-09T10:53:02;95185.72;;;23.74;53.11
42247;BME280;27913;42.722;23.268;2022-09-09T10:55:41;95187.09;;;23.72;54.03
42247;BME280;27913;42.722;23.268;2022-09-09T10:58:12;95185.47;;;23.81;53.52
42247;BME280;27913;42.722;23.268;2022-09-09T11:00:49;95182.22;;;23.79;53.95
42247;BME280;27913;42.722;23.268;2022-09-09T11:03:22;95175.00;;;23.74;53.93
42247;BME280;27913;42.722;23.268;2022-09-09T11:05:54;95183.03;;;23.74;54.14
42247;BME280;27913;42.722;23.268;2022-09-09T11:08:25;95133.09;;;23.47;54.63
42247;BME280;27913;42.722;23.268;2022-09-09T11:11:36;95131.50;;;23.62;54.20
42247;BME280;27913;42.722;23.268;2022-09-09T11:14:13;95170.97;;;23.87;54.81
42247;BME280;27913;42.722;23.268;2022-09-09T11:16:52;95172.03;;;23.86;54.71
42247;BME280;27913;42.722;23.268;2022-09-09T11:19:38;95109.47;;;23.55;54.33
42247;BME280;27913;42.722;23.268;2022-09-09T11:22:34;95086.94;;;23.50;53.94
42247;BME280;27913;42.722;23.268;2022-09-09T11:25:02;95154.31;;;24.01;54.38
42247;BME280;27913;42.722;23.268;2022-09-09T11:32:49;95136.34;;;24.12;53.99
42247;BME280;27913;42.722;23.268;2022-09-09T11:40:28;95092.84;;;24.05;53.54
42247;BME280;27913;42.722;23.268;2022-09-09T11:43:16;94951.16;;;23.34;53.58
42247;BME280;27913;42.722;23.268;2022-09-09T11:45:51;95004.00;;;23.75;53.39
42247;BME280;27913;42.722;23.268;2022-09-09T11:48:40;95086.84;;;24.39;52.57
42247;BME280;27913;42.722;23.268;2022-09-09T11:51:25;95080.97;;;24.37;53.37
42247;BME280;27913;42.722;23.268;2022-09-09T11:54:02;95097.84;;;24.48;53.29
42247;BME280;27913;42.722;23.268;2022-09-09T11:59:03;95088.34;;;24.77;53.22
42247;BME280;27913;42.722;23.268;2022-09-09T12:06:55;95084.25;;;25.00;52.24
42247;BME280;27913;42.722;23.268;2022-09-09T12:12:26;95068.03;;;25.11;52.38
42247;BME280;27913;42.722;23.268;2022-09-09T12:17:31;95047.19;;;24.81;53.15
42247;BME280;27913;42.722;23.268;2022-09-09T12:20:43;94958.22;;;24.27;53.28
42247;BME280;27913;42.722;23.268;2022-09-09T12:25:47;95026.53;;;24.71;53.64
42247;BME280;27913;42.722;23.268;2022-09-09T12:28:18;95060.28;;;24.99;53.57
42247;BME280;27913;42.722;23.268;2022-09-09T12:30:51;95021.03;;;24.97;53.28
42247;BME280;27913;42.722;23.268;2022-09-09T12:33:18;95051.09;;;25.10;54.28
42247;BME280;27913;42.722;23.268;2022-09-09T12:35:47;95050.81;;;25.12;54.33
42247;BME280;27913;42.722;23.268;2022-09-09T12:38:17;95047.28;;;25.16;53.80
42247;BME280;27913;42.722;23.268;2022-09-09T12:40:57;94990.00;;;24.65;54.25
42247;BME280;27913;42.722;23.268;2022-09-09T12:43:25;95043.91;;;25.00;55.20
42247;BME280;27913;42.722;23.268;2022-09-09T12:45:58;94986.47;;;24.75;54.78
42247;BME280;27913;42.722;23.268;2022-09-09T12:48:35;94907.13;;;24.37;54.76
42247;BME280;27913;42.722;23.268;2022-09-09T12:51:02;95034.50;;;25.32;54.88
42247;BME280;27913;42.722;23.268;2022-09-09T12:53:36;94975.84;;;25.00;54.50
42247;BME280;27913;42.722;23.268;2022-09-09T12:56:05;94994.16;;;25.32;53.45
42247;BME280;27913;42.722;23.268;2022-09-09T12:58:35;94962.75;;;25.23;52.14
42247;BME280;27913;42.722;23.268;2022-09-09T13:01:02;95027.56;;;25.66;51.54
42247;BME280;27913;42.722;23.268;2022-09-09T13:03:33;94952.09;;;25.12;52.07
42247;BME280;27913;42.722;23.268;2022-09-09T13:06:11;95034.09;;;25.50;52.09
42247;BME280;27913;42.722;23.268;2022-09-09T13:08:37;94964.47;;;25.08;51.95
42247;BME280;27913;42.722;23.268;2022-09-09T13:11:07;94995.69;;;25.44;52.14
42247;BME280;27913;42.722;23.268;2022-09-09T13:13:36;94934.31;;;25.11;51.17
42247;BME280;27913;42.722;23.268;2022-09-09T13:16:05;95025.22;;;25.84;51.54
42247;BME280;27913;42.722;23.268;2022-09-09T13:18:34;94914.75;;;25.05;51.03
42247;BME280;27913;42.722;23.268;2022-09-09T13:21:01;94970.50;;;25.29;51.14
42247;BME280;27913;42.722;23.268;2022-09-09T13:23:34;94942.34;;;25.16;51.46
42247;BME280;27913;42.722;23.268;2022-09-09T13:26:05;94956.03;;;25.20;51.79
42247;BME280;27913;42.722;23.268;2022-09-09T13:28:33;94926.53;;;25.09;51.94
42247;BME280;27913;42.722;23.268;2022-09-09T13:31:01;95005.78;;;25.57;52.52
42247;BME280;27913;42.722;23.268;2022-09-09T13:33:35;94933.31;;;25.07;52.53
42247;BME280;27913;42.722;23.268;2022-09-09T13:36:06;94954.97;;;25.21;53.46
42247;BME280;27913;42.722;23.268;2022-09-09T13:38:56;94966.16;;;25.04;53.72
42247;BME280;27913;42.722;23.268;2022-09-09T13:41:33;94915.00;;;24.64;54.12
42247;BME280;27913;42.722;23.268;2022-09-09T13:44:00;94931.91;;;24.69;54.94
42247;BME280;27913;42.722;23.268;2022-09-09T13:46:33;94955.97;;;24.90;55.06
42247;BME280;27913;42.722;23.268;2022-09-09T13:49:02;94877.59;;;24.32;54.90
42247;BME280;27913;42.722;23.268;2022-09-09T13:51:48;94871.34;;;24.47;55.31
42247;BME280;27913;42.722;23.268;2022-09-09T13:54:15;94915.97;;;24.83;54.66
42247;BME280;27913;42.722;23.268;2022-09-09T13:56:42;94908.66;;;24.94;53.66
42247;BME280;27913;42.722;23.268;2022-09-09T13:59:16;94971.91;;;25.51;52.75
42247;BME280;27913;42.722;23.268;2022-09-09T14:01:42;94891.38;;;25.01;52.09
42247;BME280;27913;42.722;23.268;2022-09-09T14:04:08;94894.50;;;25.13;51.42
42247;BME280;27913;42.722;23.268;2022-09-09T14:06:38;94880.19;;;25.18;51.66
42247;BME280;27913;42.722;23.268;2022-09-09T14:09:10;94942.50;;;25.60;51.34
42247;BME280;27913;42.722;23.268;2022-09-09T14:11:37;94883.31;;;25.30;50.82
42247;BME280;27913;42.722;23.268;2022-09-09T14:14:03;94928.75;;;25.67;51.08
42247;BME280;27913;42.722;23.268;2022-09-09T14:16:28;94915.88;;;25.58;50.99
42247;BME280;27913;42.722;23.268;2022-09-09T14:18:54;94866.34;;;25.35;50.80
42247;BME280;27913;42.722;23.268;2022-09-09T14:21:25;94914.41;;;25.72;50.68
42247;BME280;27913;42.722;23.268;2022-09-09T14:23:51;94892.88;;;25.72;49.60
42247;BME280;27913;42.722;23.268;2022-09-09T14:26:18;94903.41;;;25.68;48.75
42247;BME280;27913;42.722;23.268;2022-09-09T14:28:46;94852.06;;;25.35;49.57
42247;BME280;27913;42.722;23.268;2022-09-09T14:31:12;94940.06;;;26.13;49.12
42247;BME280;27913;42.722;23.268;2022-09-09T14:33:39;94849.59;;;25.63;48.01
42247;BME280;27913;42.722;23.268;2022-09-09T14:36:05;94909.00;;;26.21;48.17
42247;BME280;27913;42.722;23.268;2022-09-09T14:38:32;94869.75;;;26.14;47.70
42247;BME280;27913;42.722;23.268;2022-09-09T14:41:00;94894.59;;;26.50;47.76
42247;BME280;27913;42.722;23.268;2022-09-09T14:43:26;94905.97;;;26.66;47.24
42247;BME280;27913;42.722;23.268;2022-09-09T14:45:52;94908.00;;;26.74;46.68
42247;BME280;27913;42.722;23.268;2022-09-09T14:48:18;94841.28;;;26.47;46.33
42247;BME280;27913;42.722;23.268;2022-09-09T14:50:44;94902.50;;;26.99;45.83
42247;BME280;27913;42.722;23.268;2022-09-09T14:53:09;94885.91;;;26.92;45.25
42247;BME280;27913;42.722;23.268;2022-09-09T14:55:36;94815.94;;;26.48;45.74
42247;BME280;27913;42.722;23.268;2022-09-09T14:58:02;94872.63;;;26.95;45.35
42247;BME280;27913;42.722;23.268;2022-09-09T15:00:27;94868.72;;;26.68;46.35
42247;BME280;27913;42.722;23.268;2022-09-09T15:02:54;94899.00;;;26.98;45.99
42247;BME280;27913;42.722;23.268;2022-09-09T15:05:21;94921.09;;;27.20;45.77
42247;BME280;27913;42.722;23.268;2022-09-09T15:07:47;94868.94;;;26.72;45.83
42247;BME280;27913;42.722;23.268;2022-09-09T15:10:13;94902.16;;;26.86;46.18